sensor_id;sensor_type;location;lat;lon;timestamp;P1;durP1;ratioP1;P2;durP2;ratioP2
2305;SDS011;1161;51.922;8.896;2022-08-19T00:00:37;25.30;;;11.17;;
2305;SDS011;1161;51.922;8.896;2022-08-19T00:03:04;18.47;;;11.10;;
2305;SDS011;1161;51.922;8.896;2022-08-19T00:05:32;18.67;;;10.23;;
2305;SDS011;1161;51.922;8.896;2022-08-19T00:08:00;18.00;;;11.53;;
2305;SDS011;1161;51.922;8.896;2022-08-19T00:10:26;20.27;;;11.63;;
2305;SDS011;1161;51.922;8.896;2022-08-19T00:12:53;25.20;;;11.40;;
2305;SDS011;1161;51.922;8.896;2022-08-19T00:15:21;15.13;;;11.27;;
2305;SDS011;1161;51.922;8.896;2022-08-19T00:17:48;16.90;;;11.30;;
2305;SDS011;1161;51.922;8.896;2022-08-19T00:20:15;18.13;;;11.70;;
2305;SDS011;1161;51.922;8.896;2022-08-19T00:22:44;14.43;;;10.40;;
2305;SDS011;1161;51.922;8.896;2022-08-19T00:25:13;19.10;;;12.00;;
2305;SDS011;1161;51.922;8.896;2022-08-19T00:27:42;23.63;;;13.70;;
2305;SDS011;1161;51.922;8.896;2022-08-19T00:30:09;21.53;;;12.00;;
2305;SDS011;1161;51.922;8.896;2022-08-19T00:32:36;15.03;;;10.67;;
2305;SDS011;1161;51.922;8.896;2022-08-19T00:35:04;18.57;;;10.00;;
2305;SDS011;1161;51.922;8.896;2022-08-19T00:37:31;16.33;;;9.60;;
2305;SDS011;1161;51.922;8.896;2022-08-19T00:40:00;18.00;;;9.60;;
2305;SDS011;1161;51.922;8.896;2022-08-19T00:42:29;20.90;;;10.43;;
2305;SDS011;1161;51.922;8.896;2022-08-19T00:44:55;17.33;;;10.57;;
2305;SDS011;1161;51.922;8.896;2022-08-19T00:47:22;22.80;;;12.40;;
2305;SDS011;1161;51.922;8.896;2022-08-19T00:49:49;18.77;;;11.17;;
2305;SDS011;1161;51.922;8.896;2022-08-19T00:52:20;14.70;;;9.90;;
2305;SDS011;1161;51.922;8.896;2022-08-19T00:54:48;18.20;;;10.27;;
2305;SDS011;1161;51.922;8.896;2022-08-19T00:57:16;17.57;;;13.40;;
2305;SDS011;1161;51.922;8.896;2022-08-19T00:59:46;16.77;;;10.60;;
2305;SDS011;1161;51.922;8.896;2022-08-19T01:02:14;22.53;;;11.47;;
2305;SDS011;1161;51.922;8.896;2022-08-19T01:04:41;17.63;;;11.63;;
2305;SDS011;1161;51.922;8.896;2022-08-19T01:07:08;19.37;;;10.63;;
2305;SDS011;1161;51.922;8.896;2022-08-19T01:09:35;22.30;;;13.17;;
2305;SDS011;1161;51.922;8.896;2022-08-19T01:12:02;21.43;;;12.17;;
2305;SDS011;1161;51.922;8.896;2022-08-19T01:14:29;15.83;;;9.80;;
2305;SDS011;1161;51.922;8.896;2022-08-19T01:16:57;21.40;;;11.47;;
2305;SDS011;1161;51.922;8.896;2022-08-19T01:19:26;34.80;;;11.33;;
2305;SDS011;1161;51.922;8.896;2022-08-19T01:22:03;26.83;;;13.17;;
2305;SDS011;1161;51.922;8.896;2022-08-19T01:24:34;17.27;;;11.17;;
2305;SDS011;1161;51.922;8.896;2022-08-19T01:27:03;18.77;;;10.30;;
2305;SDS011;1161;51.922;8.896;2022-08-19T01:29:30;20.90;;;11.53;;
2305;SDS011;1161;51.922;8.896;2022-08-19T01:31:57;25.63;;;11.73;;
2305;SDS011;1161;51.922;8.896;2022-08-19T01:34:25;22.63;;;11.83;;
2305;SDS011;1161;51.922;8.896;2022-08-19T01:36:51;16.10;;;10.60;;
2305;SDS011;1161;51.922;8.896;2022-08-19T01:39:20;38.63;;;13.10;;
2305;SDS011;1161;51.922;8.896;2022-08-19T01:41:50;22.03;;;12.87;;
2305;SDS011;1161;51.922;8.896;2022-08-19T01:44:20;23.57;;;12.03;;
2305;SDS011;1161;51.922;8.896;2022-08-19T01:46:50;22.40;;;12.53;;
2305;SDS011;1161;51.922;8.896;2022-08-19T01:49:18;20.00;;;11.33;;
2305;SDS011;1161;51.922;8.896;2022-08-19T01:51:46;28.47;;;16.50;;
2305;SDS011;1161;51.922;8.896;2022-08-19T01:54:14;15.77;;;11.23;;
2305;SDS011;1161;51.922;8.896;2022-08-19T01:56:42;18.40;;;12.97;;
2305;SDS011;1161;51.922;8.896;2022-08-19T01:59:10;21.23;;;12.40;;
2305;SDS011;1161;51.922;8.896;2022-08-19T02:01:40;15.30;;;10.30;;
2305;SDS011;1161;51.922;8.896;2022-08-19T02:04:07;16.67;;;10.83;;
2305;SDS011;1161;51.922;8.896;2022-08-19T02:06:34;19.37;;;11.13;;
2305;SDS011;1161;51.922;8.896;2022-08-19T02:09:01;13.47;;;10.73;;
2305;SDS011;1161;51.922;8.896;2022-08-19T02:11:30;15.70;;;10.60;;
2305;SDS011;1161;51.922;8.896;2022-08-19T02:13:59;15.47;;;10.20;;
2305;SDS011;1161;51.922;8.896;2022-08-19T02:16:28;20.07;;;12.13;;
2305;SDS011;1161;51.922;8.896;2022-08-19T02:18:55;26.00;;;14.07;;
2305;SDS011;1161;51.922;8.896;2022-08-19T02:21:22;27.83;;;13.10;;
2305;SDS011;1161;51.922;8.896;2022-08-19T02:23:50;21.10;;;12.93;;
2305;SDS011;1161;51.922;8.896;2022-08-19T02:26:17;22.03;;;13.43;;
2305;SDS011;1161;51.922;8.896;2022-08-19T02:28:44;36.70;;;13.57;;
2305;SDS011;1161;51.922;8.896;2022-08-19T02:31:12;24.70;;;13.40;;
2305;SDS011;1161;51.922;8.896;2022-08-19T02:33:42;18.60;;;13.10;;
2305;SDS011;1161;51.922;8.896;2022-08-19T02:36:10;21.27;;;13.97;;
2305;SDS011;1161;51.922;8.896;2022-08-19T02:38:38;21.67;;;12.77;;
2305;SDS011;1161;51.922;8.896;2022-08-19T02:41:05;20.40;;;13.17;;
2305;SDS011;1161;51.922;8.896;2022-08-19T02:43:35;22.97;;;13.30;;
2305;SDS011;1161;51.922;8.896;2022-08-19T02:46:02;24.13;;;12.27;;
2305;SDS011;1161;51.922;8.896;2022-08-19T02:48:37;20.57;;;13.33;;
2305;SDS011;1161;51.922;8.896;2022-08-19T02:51:06;21.67;;;13.17;;
2305;SDS011;1161;51.922;8.896;2022-08-19T02:53:33;23.80;;;11.23;;
2305;SDS011;1161;51.922;8.896;2022-08-19T02:55:59;26.40;;;12.37;;
2305;SDS011;1161;51.922;8.896;2022-08-19T02:58:26;21.90;;;12.90;;
2305;SDS011;1161;51.922;8.896;2022-08-19T03:00:56;24.77;;;13.00;;
2305;SDS011;1161;51.922;8.896;2022-08-19T03:03:22;24.30;;;14.40;;
2305;SDS011;1161;51.922;8.896;2022-08-19T03:05:49;20.00;;;11.50;;
2305;SDS011;1161;51.922;8.896;2022-08-19T03:08:18;33.53;;;14.17;;
2305;SDS011;1161;51.922;8.896;2022-08-19T03:10:46;24.53;;;13.90;;
2305;SDS011;1161;51.922;8.896;2022-08-19T03:13:15;22.37;;;14.83;;
2305;SDS011;1161;51.922;8.896;2022-08-19T03:15:46;46.37;;;13.40;;
2305;SDS011;1161;51.922;8.896;2022-08-19T03:18:14;25.97;;;15.03;;
2305;SDS011;1161;51.922;8.896;2022-08-19T03:20:42;29.17;;;13.87;;
2305;SDS011;1161;51.922;8.896;2022-08-19T03:23:10;30.53;;;16.80;;
2305;SDS011;1161;51.922;8.896;2022-08-19T03:25:41;25.10;;;13.80;;
2305;SDS011;1161;51.922;8.896;2022-08-19T03:28:10;24.40;;;14.30;;
2305;SDS011;1161;51.922;8.896;2022-08-19T03:30:37;31.77;;;14.90;;
2305;SDS011;1161;51.922;8.896;2022-08-19T03:33:06;23.70;;;15.07;;
2305;SDS011;1161;51.922;8.896;2022-08-19T03:35:33;26.53;;;16.20;;
2305;SDS011;1161;51.922;8.896;2022-08-19T03:38:02;27.80;;;14.50;;
2305;SDS011;1161;51.922;8.896;2022-08-19T03:40:29;35.00;;;17.93;;
2305;SDS011;1161;51.922;8.896;2022-08-19T03:42:57;43.17;;;16.93;;
2305;SDS011;1161;51.922;8.896;2022-08-19T03:45:25;43.23;;;16.70;;
2305;SDS011;1161;51.922;8.896;2022-08-19T03:47:52;31.87;;;16.10;;
2305;SDS011;1161;51.922;8.896;2022-08-19T03:50:19;31.10;;;14.80;;
2305;SDS011;1161;51.922;8.896;2022-08-19T03:52:47;23.13;;;12.57;;
2305;SDS011;1161;51.922;8.896;2022-08-19T03:55:16;24.97;;;14.10;;
2305;SDS011;1161;51.922;8.896;2022-08-19T03:57:43;39.00;;;16.00;;
2305;SDS011;1161;51.922;8.896;2022-08-19T04:00:13;32.43;;;17.37;;
2305;SDS011;1161;51.922;8.896;2022-08-19T04:02:42;31.90;;;17.73;;
2305;SDS011;1161;51.922;8.896;2022-08-19T04:05:09;29.13;;;15.53;;
2305;SDS011;1161;51.922;8.896;2022-08-19T04:07:36;27.93;;;13.90;;
2305;SDS011;1161;51.922;8.896;2022-08-19T04:10:04;39.33;;;20.07;;
2305;SDS011;1161;51.922;8.896;2022-08-19T04:12:32;36.13;;;18.37;;
2305;SDS011;1161;51.922;8.896;2022-08-19T04:15:00;32.80;;;16.90;;
2305;SDS011;1161;51.922;8.896;2022-08-19T04:17:28;31.00;;;14.87;;
2305;SDS011;1161;51.922;8.896;2022-08-19T04:19:56;31.30;;;16.50;;
2305;SDS011;1161;51.922;8.896;2022-08-19T04:22:23;32.23;;;17.40;;
2305;SDS011;1161;51.922;8.896;2022-08-19T04:24:50;38.90;;;20.93;;
2305;SDS011;1161;51.922;8.896;2022-08-19T04:27:17;35.13;;;16.90;;
2305;SDS011;1161;51.922;8.896;2022-08-19T04:29:44;33.90;;;19.70;;
2305;SDS011;1161;51.922;8.896;2022-08-19T04:32:13;41.43;;;18.87;;
2305;SDS011;1161;51.922;8.896;2022-08-19T04:34:43;36.63;;;19.93;;
2305;SDS011;1161;51.922;8.896;2022-08-19T04:37:12;31.13;;;18.10;;
2305;SDS011;1161;51.922;8.896;2022-08-19T04:39:40;41.33;;;19.70;;
2305;SDS011;1161;51.922;8.896;2022-08-19T04:42:26;35.47;;;18.70;;
2305;SDS011;1161;51.922;8.896;2022-08-19T04:45:06;45.73;;;21.40;;
2305;SDS011;1161;51.922;8.896;2022-08-19T04:47:35;40.33;;;22.30;;
2305;SDS011;1161;51.922;8.896;2022-08-19T04:50:03;41.07;;;21.70;;
2305;SDS011;1161;51.922;8.896;2022-08-19T04:52:33;40.97;;;21.77;;
2305;SDS011;1161;51.922;8.896;2022-08-19T04:55:01;47.13;;;21.03;;
2305;SDS011;1161;51.922;8.896;2022-08-19T04:57:28;51.73;;;19.30;;
2305;SDS011;1161;51.922;8.896;2022-08-19T04:59:57;58.10;;;21.50;;
2305;SDS011;1161;51.922;8.896;2022-08-19T05:02:24;40.80;;;19.07;;
2305;SDS011;1161;51.922;8.896;2022-08-19T05:04:56;40.43;;;19.67;;
2305;SDS011;1161;51.922;8.896;2022-08-19T05:07:26;41.87;;;18.60;;
2305;SDS011;1161;51.922;8.896;2022-08-19T05:09:54;39.93;;;18.57;;
2305;SDS011;1161;51.922;8.896;2022-08-19T05:12:21;54.83;;;18.90;;
2305;SDS011;1161;51.922;8.896;2022-08-19T05:14:47;36.43;;;18.53;;
2305;SDS011;1161;51.922;8.896;2022-08-19T05:17:14;34.77;;;18.83;;
2305;SDS011;1161;51.922;8.896;2022-08-19T05:19:42;39.57;;;20.10;;
2305;SDS011;1161;51.922;8.896;2022-08-19T05:22:29;44.00;;;18.90;;
2305;SDS011;1161;51.922;8.896;2022-08-19T05:25:05;39.63;;;20.47;;
2305;SDS011;1161;51.922;8.896;2022-08-19T05:27:34;43.87;;;18.10;;
2305;SDS011;1161;51.922;8.896;2022-08-19T05:30:02;40.07;;;20.60;;
2305;SDS011;1161;51.922;8.896;2022-08-19T05:32:31;27.57;;;16.80;;
2305;SDS011;1161;51.922;8.896;2022-08-19T05:34:58;41.83;;;16.40;;
2305;SDS011;1161;51.922;8.896;2022-08-19T05:37:25;40.73;;;16.83;;
2305;SDS011;1161;51.922;8.896;2022-08-19T05:39:55;24.50;;;13.07;;
2305;SDS011;1161;51.922;8.896;2022-08-19T05:42:22;20.70;;;12.67;;
2305;SDS011;1161;51.922;8.896;2022-08-19T05:44:52;22.87;;;14.07;;
2305;SDS011;1161;51.922;8.896;2022-08-19T05:47:19;25.67;;;13.47;;
2305;SDS011;1161;51.922;8.896;2022-08-19T05:49:48;23.87;;;13.87;;
2305;SDS011;1161;51.922;8.896;2022-08-19T05:52:16;31.20;;;13.20;;
2305;SDS011;1161;51.922;8.896;2022-08-19T05:54:43;23.03;;;14.33;;
2305;SDS011;1161;51.922;8.896;2022-08-19T05:57:14;19.37;;;11.73;;
2305;SDS011;1161;51.922;8.896;2022-08-19T05:59:41;29.90;;;15.33;;
2305;SDS011;1161;51.922;8.896;2022-08-19T06:02:09;20.83;;;12.20;;
2305;SDS011;1161;51.922;8.896;2022-08-19T06:04:35;24.87;;;12.70;;
2305;SDS011;1161;51.922;8.896;2022-08-19T06:07:02;19.53;;;12.10;;
2305;SDS011;1161;51.922;8.896;2022-08-19T06:09:31;21.30;;;12.63;;
2305;SDS011;1161;51.922;8.896;2022-08-19T06:11:58;16.23;;;10.73;;
2305;SDS011;1161;51.922;8.896;2022-08-19T06:14:31;19.90;;;10.90;;
2305;SDS011;1161;51.922;8.896;2022-08-19T06:17:00;14.20;;;10.37;;
2305;SDS011;1161;51.922;8.896;2022-08-19T06:19:28;14.17;;;10.27;;
2305;SDS011;1161;51.922;8.896;2022-08-19T06:21:55;16.13;;;10.27;;
2305;SDS011;1161;51.922;8.896;2022-08-19T06:24:24;16.63;;;11.00;;
2305;SDS011;1161;51.922;8.896;2022-08-19T06:26:52;14.07;;;9.90;;
2305;SDS011;1161;51.922;8.896;2022-08-19T06:29:22;14.10;;;10.40;;
2305;SDS011;1161;51.922;8.896;2022-08-19T06:31:53;20.67;;;9.67;;
2305;SDS011;1161;51.922;8.896;2022-08-19T06:34:22;15.73;;;9.33;;
2305;SDS011;1161;51.922;8.896;2022-08-19T06:36:50;10.70;;;8.27;;
2305;SDS011;1161;51.922;8.896;2022-08-19T06:39:18;16.90;;;9.40;;
2305;SDS011;1161;51.922;8.896;2022-08-19T06:41:47;20.97;;;8.77;;
2305;SDS011;1161;51.922;8.896;2022-08-19T06:44:16;15.73;;;9.03;;
2305;SDS011;1161;51.922;8.896;2022-08-19T06:46:43;12.63;;;7.40;;
2305;SDS011;1161;51.922;8.896;2022-08-19T06:49:11;14.53;;;9.53;;
2305;SDS011;1161;51.922;8.896;2022-08-19T06:51:40;12.50;;;7.70;;
2305;SDS011;1161;51.922;8.896;2022-08-19T06:54:08;9.87;;;7.30;;
2305;SDS011;1161;51.922;8.896;2022-08-19T06:56:35;12.97;;;8.07;;
2305;SDS011;1161;51.922;8.896;2022-08-19T06:59:02;11.53;;;6.67;;
2305;SDS011;1161;51.922;8.896;2022-08-19T07:01:31;24.10;;;7.20;;
2305;SDS011;1161;51.922;8.896;2022-08-19T07:04:03;9.00;;;7.00;;
2305;SDS011;1161;51.922;8.896;2022-08-19T07:06:32;10.47;;;6.03;;
2305;SDS011;1161;51.922;8.896;2022-08-19T07:08:58;8.30;;;6.20;;
2305;SDS011;1161;51.922;8.896;2022-08-19T07:11:25;11.10;;;6.80;;
2305;SDS011;1161;51.922;8.896;2022-08-19T07:13:52;13.97;;;6.33;;
2305;SDS011;1161;51.922;8.896;2022-08-19T07:16:19;9.90;;;7.37;;
2305;SDS011;1161;51.922;8.896;2022-08-19T07:18:47;8.47;;;7.60;;
2305;SDS011;1161;51.922;8.896;2022-08-19T07:21:14;10.27;;;7.43;;
2305;SDS011;1161;51.922;8.896;2022-08-19T07:23:44;15.80;;;6.40;;
2305;SDS011;1161;51.922;8.896;2022-08-19T07:26:11;7.00;;;5.80;;
2305;SDS011;1161;51.922;8.896;2022-08-19T07:28:40;14.70;;;7.30;;
2305;SDS011;1161;51.922;8.896;2022-08-19T07:31:09;13.60;;;5.83;;
2305;SDS011;1161;51.922;8.896;2022-08-19T07:33:37;12.50;;;7.00;;
2305;SDS011;1161;51.922;8.896;2022-08-19T07:36:04;11.83;;;6.37;;
2305;SDS011;1161;51.922;8.896;2022-08-19T07:38:32;10.63;;;6.73;;
2305;SDS011;1161;51.922;8.896;2022-08-19T07:41:01;13.67;;;7.30;;
2305;SDS011;1161;51.922;8.896;2022-08-19T07:43:27;9.00;;;5.97;;
2305;SDS011;1161;51.922;8.896;2022-08-19T07:45:55;11.40;;;6.00;;
2305;SDS011;1161;51.922;8.896;2022-08-19T07:48:22;11.33;;;8.67;;
2305;SDS011;1161;51.922;8.896;2022-08-19T07:50:50;12.83;;;7.30;;
2305;SDS011;1161;51.922;8.896;2022-08-19T07:53:17;11.00;;;7.03;;
2305;SDS011;1161;51.922;8.896;2022-08-19T07:55:45;13.83;;;8.57;;
2305;SDS011;1161;51.922;8.896;2022-08-19T07:58:14;13.23;;;8.17;;
2305;SDS011;1161;51.922;8.896;2022-08-19T08:00:42;11.73;;;8.87;;
2305;SDS011;1161;51.922;8.896;2022-08-19T08:03:10;14.63;;;8.50;;
2305;SDS011;1161;51.922;8.896;2022-08-19T08:05:37;10.10;;;7.13;;
2305;SDS011;1161;51.922;8.896;2022-08-19T08:08:22;17.33;;;7.83;;
2305;SDS011;1161;51.922;8.896;2022-08-19T08:11:02;13.50;;;8.13;;
2305;SDS011;1161;51.922;8.896;2022-08-19T08:13:31;16.87;;;7.10;;
2305;SDS011;1161;51.922;8.896;2022-08-19T08:16:00;11.97;;;7.73;;
2305;SDS011;1161;51.922;8.896;2022-08-19T08:18:27;11.33;;;8.87;;
2305;SDS011;1161;51.922;8.896;2022-08-19T08:20:54;14.50;;;8.33;;
2305;SDS011;1161;51.922;8.896;2022-08-19T08:23:21;9.60;;;8.13;;
2305;SDS011;1161;51.922;8.896;2022-08-19T08:25:50;18.63;;;7.60;;
2305;SDS011;1161;51.922;8.896;2022-08-19T08:28:17;13.73;;;8.37;;
2305;SDS011;1161;51.922;8.896;2022-08-19T08:30:46;9.53;;;7.13;;
2305;SDS011;1161;51.922;8.896;2022-08-19T08:33:13;20.53;;;9.63;;
2305;SDS011;1161;51.922;8.896;2022-08-19T08:35:42;9.77;;;7.50;;
2305;SDS011;1161;51.922;8.896;2022-08-19T08:38:10;11.40;;;7.60;;
2305;SDS011;1161;51.922;8.896;2022-08-19T08:40:39;16.50;;;8.00;;
2305;SDS011;1161;51.922;8.896;2022-08-19T08:43:13;7.53;;;6.50;;
2305;SDS011;1161;51.922;8.896;2022-08-19T08:45:52;13.10;;;6.80;;
2305;SDS011;1161;51.922;8.896;2022-08-19T08:48:24;12.87;;;6.90;;
2305;SDS011;1161;51.922;8.896;2022-08-19T08:50:57;9.37;;;7.10;;
2305;SDS011;1161;51.922;8.896;2022-08-19T08:53:25;12.40;;;7.47;;
2305;SDS011;1161;51.922;8.896;2022-08-19T08:55:52;12.23;;;5.93;;
2305;SDS011;1161;51.922;8.896;2022-08-19T08:58:20;8.57;;;6.70;;
2305;SDS011;1161;51.922;8.896;2022-08-19T09:00:54;6.97;;;6.03;;
2305;SDS011;1161;51.922;8.896;2022-08-19T09:03:22;6.53;;;5.90;;
2305;SDS011;1161;51.922;8.896;2022-08-19T09:05:54;5.73;;;5.23;;
2305;SDS011;1161;51.922;8.896;2022-08-19T09:08:26;6.23;;;4.67;;
2305;SDS011;1161;51.922;8.896;2022-08-19T09:10:59;8.20;;;6.53;;
2305;SDS011;1161;51.922;8.896;2022-08-19T09:13:28;7.47;;;5.30;;
2305;SDS011;1161;51.922;8.896;2022-08-19T09:16:00;7.07;;;6.20;;
2305;SDS011;1161;51.922;8.896;2022-08-19T09:18:38;8.77;;;5.70;;
2305;SDS011;1161;51.922;8.896;2022-08-19T09:21:06;6.57;;;5.43;;
2305;SDS011;1161;51.922;8.896;2022-08-19T09:23:32;11.83;;;6.50;;
2305;SDS011;1161;51.922;8.896;2022-08-19T09:25:59;18.03;;;5.73;;
2305;SDS011;1161;51.922;8.896;2022-08-19T09:28:26;7.77;;;7.03;;
2305;SDS011;1161;51.922;8.896;2022-08-19T09:30:52;15.57;;;6.70;;
2305;SDS011;1161;51.922;8.896;2022-08-19T09:33:20;11.60;;;5.63;;
2305;SDS011;1161;51.922;8.896;2022-08-19T09:35:47;5.47;;;5.00;;
2305;SDS011;1161;51.922;8.896;2022-08-19T09:38:14;9.77;;;4.90;;
2305;SDS011;1161;51.922;8.896;2022-08-19T09:40:41;7.30;;;5.00;;
2305;SDS011;1161;51.922;8.896;2022-08-19T09:43:08;8.63;;;5.17;;
2305;SDS011;1161;51.922;8.896;2022-08-19T09:45:36;5.93;;;3.93;;
2305;SDS011;1161;51.922;8.896;2022-08-19T09:48:03;5.83;;;4.70;;
2305;SDS011;1161;51.922;8.896;2022-08-19T09:50:32;7.70;;;4.50;;
2305;SDS011;1161;51.922;8.896;2022-08-19T09:53:00;9.40;;;5.20;;
2305;SDS011;1161;51.922;8.896;2022-08-19T09:55:27;8.73;;;4.90;;
2305;SDS011;1161;51.922;8.896;2022-08-19T09:57:53;6.20;;;5.67;;
2305;SDS011;1161;51.922;8.896;2022-08-19T10:00:20;5.43;;;4.40;;
2305;SDS011;1161;51.922;8.896;2022-08-19T10:02:47;7.40;;;5.20;;
2305;SDS011;1161;51.922;8.896;2022-08-19T10:05:14;5.00;;;4.50;;
2305;SDS011;1161;51.922;8.896;2022-08-19T10:08:00;7.50;;;4.43;;
2305;SDS011;1161;51.922;8.896;2022-08-19T10:10:27;6.70;;;4.37;;
2305;SDS011;1161;51.922;8.896;2022-08-19T10:12:54;5.03;;;4.03;;
2305;SDS011;1161;51.922;8.896;2022-08-19T10:15:21;5.70;;;4.37;;
2305;SDS011;1161;51.922;8.896;2022-08-19T10:17:48;4.90;;;4.40;;
2305;SDS011;1161;51.922;8.896;2022-08-19T10:20:15;4.23;;;3.77;;
2305;SDS011;1161;51.922;8.896;2022-08-19T10:22:42;7.50;;;4.70;;
2305;SDS011;1161;51.922;8.896;2022-08-19T10:25:10;3.30;;;3.10;;
2305;SDS011;1161;51.922;8.896;2022-08-19T10:27:37;7.80;;;3.60;;
2305;SDS011;1161;51.922;8.896;2022-08-19T10:30:04;4.83;;;3.90;;
2305;SDS011;1161;51.922;8.896;2022-08-19T10:32:32;5.00;;;4.60;;
2305;SDS011;1161;51.922;8.896;2022-08-19T10:34:59;6.93;;;3.90;;
2305;SDS011;1161;51.922;8.896;2022-08-19T10:37:26;5.93;;;3.90;;
2305;SDS011;1161;51.922;8.896;2022-08-19T10:39:52;9.80;;;3.77;;
2305;SDS011;1161;51.922;8.896;2022-08-19T10:42:20;4.70;;;4.30;;
2305;SDS011;1161;51.922;8.896;2022-08-19T10:44:47;3.70;;;3.40;;
2305;SDS011;1161;51.922;8.896;2022-08-19T10:47:13;4.90;;;4.03;;
2305;SDS011;1161;51.922;8.896;2022-08-19T10:49:40;8.60;;;5.40;;
2305;SDS011;1161;51.922;8.896;2022-08-19T10:52:21;5.40;;;4.87;;
2305;SDS011;1161;51.922;8.896;2022-08-19T10:55:00;6.27;;;3.60;;
2305;SDS011;1161;51.922;8.896;2022-08-19T10:57:46;3.70;;;3.40;;
2305;SDS011;1161;51.922;8.896;2022-08-19T11:00:13;7.17;;;4.07;;
2305;SDS011;1161;51.922;8.896;2022-08-19T11:02:40;4.73;;;3.50;;
2305;SDS011;1161;51.922;8.896;2022-08-19T11:05:08;7.73;;;3.40;;
2305;SDS011;1161;51.922;8.896;2022-08-19T11:07:37;5.40;;;3.10;;
2305;SDS011;1161;51.922;8.896;2022-08-19T11:10:04;5.40;;;3.60;;
2305;SDS011;1161;51.922;8.896;2022-08-19T11:12:32;5.20;;;2.87;;
2305;SDS011;1161;51.922;8.896;2022-08-19T11:15:00;5.23;;;3.50;;
2305;SDS011;1161;51.922;8.896;2022-08-19T11:17:27;4.00;;;3.70;;
2305;SDS011;1161;51.922;8.896;2022-08-19T11:19:56;4.03;;;3.70;;
2305;SDS011;1161;51.922;8.896;2022-08-19T11:22:22;6.33;;;4.47;;
2305;SDS011;1161;51.922;8.896;2022-08-19T11:24:49;4.27;;;3.97;;
2305;SDS011;1161;51.922;8.896;2022-08-19T11:27:16;5.40;;;4.37;;
2305;SDS011;1161;51.922;8.896;2022-08-19T11:29:43;5.17;;;4.60;;
2305;SDS011;1161;51.922;8.896;2022-08-19T11:32:11;13.93;;;3.97;;
2305;SDS011;1161;51.922;8.896;2022-08-19T11:34:38;6.03;;;3.10;;
2305;SDS011;1161;51.922;8.896;2022-08-19T11:37:05;3.93;;;3.60;;
2305;SDS011;1161;51.922;8.896;2022-08-19T11:39:34;4.53;;;4.13;;
2305;SDS011;1161;51.922;8.896;2022-08-19T11:42:03;7.13;;;3.53;;
2305;SDS011;1161;51.922;8.896;2022-08-19T11:44:51;4.37;;;3.97;;
2305;SDS011;1161;51.922;8.896;2022-08-19T11:47:19;3.47;;;3.27;;
2305;SDS011;1161;51.922;8.896;2022-08-19T11:49:46;3.90;;;3.40;;
2305;SDS011;1161;51.922;8.896;2022-08-19T11:52:12;5.10;;;3.77;;
2305;SDS011;1161;51.922;8.896;2022-08-19T11:54:39;4.77;;;3.23;;
2305;SDS011;1161;51.922;8.896;2022-08-19T11:57:06;6.80;;;3.90;;
2305;SDS011;1161;51.922;8.896;2022-08-19T11:59:32;6.40;;;3.73;;
2305;SDS011;1161;51.922;8.896;2022-08-19T12:01:59;4.40;;;4.10;;
2305;SDS011;1161;51.922;8.896;2022-08-19T12:04:27;5.97;;;3.87;;
2305;SDS011;1161;51.922;8.896;2022-08-19T12:06:54;5.30;;;2.83;;
2305;SDS011;1161;51.922;8.896;2022-08-19T12:09:20;3.63;;;3.40;;
2305;SDS011;1161;51.922;8.896;2022-08-19T12:11:47;4.57;;;3.90;;
2305;SDS011;1161;51.922;8.896;2022-08-19T12:14:14;4.73;;;3.63;;
2305;SDS011;1161;51.922;8.896;2022-08-19T12:16:43;4.00;;;3.53;;
2305;SDS011;1161;51.922;8.896;2022-08-19T12:19:10;4.20;;;3.87;;
2305;SDS011;1161;51.922;8.896;2022-08-19T12:21:38;6.07;;;3.50;;
2305;SDS011;1161;51.922;8.896;2022-08-19T12:24:05;3.80;;;3.50;;
2305;SDS011;1161;51.922;8.896;2022-08-19T12:26:32;4.30;;;4.00;;
2305;SDS011;1161;51.922;8.896;2022-08-19T12:28:59;3.43;;;3.17;;
2305;SDS011;1161;51.922;8.896;2022-08-19T12:31:26;3.53;;;2.77;;
2305;SDS011;1161;51.922;8.896;2022-08-19T12:33:54;3.60;;;3.40;;
2305;SDS011;1161;51.922;8.896;2022-08-19T12:36:20;3.10;;;2.90;;
2305;SDS011;1161;51.922;8.896;2022-08-19T12:38:49;4.47;;;4.07;;
2305;SDS011;1161;51.922;8.896;2022-08-19T12:41:16;3.80;;;2.87;;
2305;SDS011;1161;51.922;8.896;2022-08-19T12:43:44;3.23;;;3.03;;
2305;SDS011;1161;51.922;8.896;2022-08-19T12:46:10;3.43;;;3.13;;
2305;SDS011;1161;51.922;8.896;2022-08-19T12:48:37;5.90;;;3.80;;
2305;SDS011;1161;51.922;8.896;2022-08-19T12:51:08;9.50;;;3.57;;
2305;SDS011;1161;51.922;8.896;2022-08-19T12:53:35;9.00;;;3.50;;
2305;SDS011;1161;51.922;8.896;2022-08-19T12:56:04;9.20;;;3.13;;
2305;SDS011;1161;51.922;8.896;2022-08-19T12:58:31;4.37;;;4.00;;
2305;SDS011;1161;51.922;8.896;2022-08-19T13:00:59;3.47;;;3.23;;
2305;SDS011;1161;51.922;8.896;2022-08-19T13:03:26;3.07;;;2.87;;
2305;SDS011;1161;51.922;8.896;2022-08-19T13:05:54;7.23;;;3.30;;
2305;SDS011;1161;51.922;8.896;2022-08-19T13:08:21;2.80;;;2.60;;
2305;SDS011;1161;51.922;8.896;2022-08-19T13:10:48;2.63;;;2.43;;
2305;SDS011;1161;51.922;8.896;2022-08-19T13:13:16;3.80;;;3.50;;
2305;SDS011;1161;51.922;8.896;2022-08-19T13:15:43;3.50;;;3.30;;
2305;SDS011;1161;51.922;8.896;2022-08-19T13:18:11;4.23;;;3.30;;
2305;SDS011;1161;51.922;8.896;2022-08-19T13:20:38;4.33;;;3.13;;
2305;SDS011;1161;51.922;8.896;2022-08-19T13:23:06;4.03;;;3.80;;
2305;SDS011;1161;51.922;8.896;2022-08-19T13:25:33;3.77;;;3.43;;
2305;SDS011;1161;51.922;8.896;2022-08-19T13:28:00;3.07;;;2.93;;
2305;SDS011;1161;51.922;8.896;2022-08-19T13:30:28;3.90;;;2.93;;
2305;SDS011;1161;51.922;8.896;2022-08-19T13:33:12;3.07;;;2.77;;
2305;SDS011;1161;51.922;8.896;2022-08-19T13:35:41;4.97;;;3.43;;
2305;SDS011;1161;51.922;8.896;2022-08-19T13:38:10;4.27;;;3.97;;
2305;SDS011;1161;51.922;8.896;2022-08-19T13:40:38;3.60;;;2.93;;
2305;SDS011;1161;51.922;8.896;2022-08-19T13:43:05;2.87;;;2.77;;
2305;SDS011;1161;51.922;8.896;2022-08-19T13:45:36;3.90;;;3.57;;
2305;SDS011;1161;51.922;8.896;2022-08-19T13:48:03;5.80;;;3.33;;
2305;SDS011;1161;51.922;8.896;2022-08-19T13:50:34;3.93;;;3.50;;
2305;SDS011;1161;51.922;8.896;2022-08-19T13:53:02;2.93;;;2.73;;
2305;SDS011;1161;51.922;8.896;2022-08-19T13:55:29;3.27;;;3.07;;
2305;SDS011;1161;51.922;8.896;2022-08-19T13:57:57;3.40;;;3.20;;
2305;SDS011;1161;51.922;8.896;2022-08-19T14:00:26;3.43;;;3.13;;
2305;SDS011;1161;51.922;8.896;2022-08-19T14:02:55;3.40;;;3.20;;
2305;SDS011;1161;51.922;8.896;2022-08-19T14:05:22;4.23;;;3.77;;
2305;SDS011;1161;51.922;8.896;2022-08-19T14:07:51;3.30;;;3.00;;
2305;SDS011;1161;51.922;8.896;2022-08-19T14:10:18;3.27;;;3.07;;
2305;SDS011;1161;51.922;8.896;2022-08-19T14:12:45;4.60;;;4.07;;
2305;SDS011;1161;51.922;8.896;2022-08-19T14:15:13;3.23;;;3.03;;
2305;SDS011;1161;51.922;8.896;2022-08-19T14:17:40;5.23;;;3.33;;
2305;SDS011;1161;51.922;8.896;2022-08-19T14:20:10;5.47;;;4.00;;
2305;SDS011;1161;51.922;8.896;2022-08-19T14:22:38;3.43;;;3.20;;
2305;SDS011;1161;51.922;8.896;2022-08-19T14:25:07;4.70;;;3.50;;
2305;SDS011;1161;51.922;8.896;2022-08-19T14:27:34;4.30;;;3.53;;
2305;SDS011;1161;51.922;8.896;2022-08-19T14:30:01;5.10;;;3.40;;
2305;SDS011;1161;51.922;8.896;2022-08-19T14:32:28;5.80;;;5.00;;
2305;SDS011;1161;51.922;8.896;2022-08-19T14:34:55;3.90;;;3.07;;
2305;SDS011;1161;51.922;8.896;2022-08-19T14:37:23;3.37;;;3.17;;
2305;SDS011;1161;51.922;8.896;2022-08-19T14:39:50;4.13;;;3.67;;
2305;SDS011;1161;51.922;8.896;2022-08-19T14:42:17;4.33;;;3.60;;
2305;SDS011;1161;51.922;8.896;2022-08-19T14:44:44;3.87;;;3.43;;
2305;SDS011;1161;51.922;8.896;2022-08-19T14:47:11;6.47;;;3.53;;
2305;SDS011;1161;51.922;8.896;2022-08-19T14:49:37;6.03;;;3.50;;
2305;SDS011;1161;51.922;8.896;2022-08-19T14:52:04;6.20;;;4.40;;
2305;SDS011;1161;51.922;8.896;2022-08-19T14:54:33;4.03;;;3.73;;
2305;SDS011;1161;51.922;8.896;2022-08-19T14:57:00;4.10;;;3.70;;
2305;SDS011;1161;51.922;8.896;2022-08-19T14:59:26;5.23;;;3.60;;
2305;SDS011;1161;51.922;8.896;2022-08-19T15:01:53;7.40;;;4.27;;
2305;SDS011;1161;51.922;8.896;2022-08-19T15:04:20;3.53;;;3.23;;
2305;SDS011;1161;51.922;8.896;2022-08-19T15:06:46;4.80;;;4.40;;
2305;SDS011;1161;51.922;8.896;2022-08-19T15:09:13;4.70;;;3.70;;